createdAt,value
2023-03-17T00:00:08.929Z,73.80
2023-03-17T00:04:15.308Z,73.45
2023-03-17T00:08:22.991Z,73.60
2023-03-17T00:12:25.821Z,73.79
2023-03-17T00:16:32.499Z,74.28
2023-03-17T00:20:35.484Z,73.83
2023-03-17T00:24:38.602Z,74.35
2023-03-17T00:28:41.560Z,73.92
2023-03-17T00:32:46.825Z,74.24
2023-03-17T00:36:51.656Z,73.78
2023-03-17T00:40:54.778Z,74.19
2023-03-17T00:44:58.387Z,73.60
2023-03-17T00:49:03.503Z,73.56
2023-03-17T00:53:08.619Z,73.75
2023-03-17T00:57:12.692Z,73.90
2023-03-17T01:01:16.002Z,75.10
2023-03-17T01:05:21.772Z,75.17
2023-03-17T01:09:28.222Z,75.48
2023-03-17T01:13:31.259Z,75.16
2023-03-17T01:17:35.303Z,76.49
2023-03-17T01:21:40.698Z,76.13
2023-03-17T01:25:45.339Z,76.15
2023-03-17T01:29:48.238Z,76.44
2023-03-17T01:33:52.741Z,76.24
2023-03-17T01:37:58.059Z,75.63
2023-03-17T01:42:01.496Z,76.16
2023-03-17T01:46:28.339Z,76.33
2023-03-17T01:50:31.839Z,76.09
2023-03-17T01:54:40.910Z,76.93
2023-03-17T01:58:46.602Z,76.40
2023-03-17T02:02:51.611Z,76.65
2023-03-17T02:06:58.357Z,77.09
2023-03-17T02:11:05.054Z,76.67
2023-03-17T02:15:09.753Z,76.78
2023-03-17T02:19:12.868Z,77.65
2023-03-17T02:23:20.051Z,77.57
2023-03-17T02:27:27.681Z,78.49
2023-03-17T02:31:31.203Z,77.95
2023-03-17T02:35:34.012Z,78.65
2023-03-17T02:39:38.388Z,78.80
2023-03-17T02:43:41.383Z,79.43
2023-03-17T02:47:44.762Z,79.46
2023-03-17T02:51:48.078Z,79.34
2023-03-17T02:55:52.391Z,79.53
2023-03-17T02:59:55.422Z,79.60
2023-03-17T03:03:58.758Z,79.99
2023-03-17T03:08:01.613Z,80.08
2023-03-17T03:12:09.905Z,81.12
2023-03-17T03:16:13.169Z,80.82
2023-03-17T03:20:16.265Z,80.61
2023-03-17T03:24:19.144Z,81.49
2023-03-17T03:28:23.403Z,81.24
2023-03-17T03:32:26.455Z,81.08
2023-03-17T03:36:29.705Z,81.68
2023-03-17T03:40:32.682Z,81.36
2023-03-17T03:44:37.180Z,81.38
2023-03-17T03:48:40.519Z,81.70
2023-03-17T03:52:43.638Z,81.94
2023-03-17T03:56:46.500Z,81.76
2023-03-17T04:00:51.948Z,81.40
2023-03-17T04:04:55.196Z,80.96
2023-03-17T04:08:58.493Z,80.84
2023-03-17T04:13:04.474Z,80.61
2023-03-17T04:17:09.357Z,80.10
2023-03-17T04:21:12.305Z,80.17
2023-03-17T04:25:16.657Z,79.84
2023-03-17T04:29:20.059Z,79.66
2023-03-17T04:33:24.958Z,79.38
2023-03-17T04:37:28.083Z,78.57
2023-03-17T04:41:31.113Z,78.76
2023-03-17T04:45:34.118Z,79.06
2023-03-17T04:49:38.485Z,78.86
2023-03-17T04:53:41.419Z,78.25
2023-03-17T04:57:44.911Z,78.46
2023-03-17T05:01:47.979Z,78.03
2023-03-17T05:05:52.719Z,78.02
2023-03-17T05:09:55.527Z,77.89
2023-03-17T05:13:58.466Z,78.08
2023-03-17T05:18:03.305Z,78.42
2023-03-17T05:22:09.519Z,78.82
2023-03-17T05:26:13.079Z,79.12
2023-03-17T05:30:16.962Z,79.47
2023-03-17T05:34:19.831Z,80.50
2023-03-17T05:38:24.047Z,81.10
2023-03-17T05:42:27.160Z,81.73
2023-03-17T05:46:30.137Z,81.89
2023-03-17T05:50:33.369Z,82.53
2023-03-17T05:54:38.388Z,83.04
2023-03-17T05:58:41.634Z,83.33
2023-03-17T06:02:44.955Z,84.08
2023-03-17T06:06:48.561Z,84.78
2023-03-17T06:10:52.785Z,85.27
2023-03-17T06:14:55.907Z,86.27
2023-03-17T06:18:58.660Z,86.54
2023-03-17T06:23:05.259Z,87.35
2023-03-17T06:27:10.878Z,88.44
2023-03-17T06:31:13.849Z,88.91
2023-03-17T06:35:17.920Z,88.84
2023-03-17T06:39:21.379Z,88.64
2023-03-17T06:43:25.661Z,87.93
2023-03-17T06:47:28.543Z,87.50
2023-03-17T06:51:32.447Z,86.57
2023-03-17T06:55:35.727Z,86.17
2023-03-17T06:59:40.337Z,85.44
2023-03-17T07:03:43.718Z,85.18
2023-03-17T07:07:46.992Z,85.32
2023-03-17T07:11:49.975Z,83.58
2023-03-17T07:15:55.547Z,82.84
2023-03-17T07:19:59.479Z,81.38
2023-03-17T07:24:02.624Z,80.14
2023-03-17T07:28:05.845Z,79.67
2023-03-17T07:32:10.348Z,78.47
2023-03-17T07:36:13.553Z,76.37
2023-03-17T07:40:18.341Z,74.04
2023-03-17T07:44:21.303Z,71.78
2023-03-17T07:48:25.593Z,72.05
2023-03-17T07:52:28.463Z,72.50
2023-03-17T07:56:33.274Z,72.36
2023-03-17T08:00:36.588Z,69.92
2023-03-17T08:04:41.522Z,69.07
2023-03-17T08:08:44.470Z,68.51
2023-03-17T08:12:51.785Z,67.27
2023-03-17T08:16:55.700Z,66.93
2023-03-17T08:20:59.944Z,66.11
2023-03-17T08:25:03.485Z,65.57
2023-03-17T08:29:08.024Z,64.42
2023-03-17T08:33:11.446Z,64.83
2023-03-17T08:37:16.306Z,63.88
2023-03-17T08:41:21.281Z,64.09
2023-03-17T08:45:24.651Z,63.53
2023-03-17T08:49:28.453Z,62.66
2023-03-17T08:53:34.861Z,61.04
2023-03-17T08:57:38.922Z,59.15
2023-03-17T09:01:44.077Z,57.92
2023-03-17T09:05:47.103Z,58.24
2023-03-17T09:09:51.705Z,57.93
2023-03-17T09:13:55.590Z,58.09
2023-03-17T09:17:59.045Z,58.21
2023-03-17T09:22:03.813Z,56.34
2023-03-17T09:26:08.872Z,55.93
2023-03-17T09:30:13.989Z,55.55
2023-03-17T09:34:16.828Z,54.83
2023-03-17T09:38:19.656Z,55.84
2023-03-17T09:42:39.177Z,53.95
2023-03-17T09:46:49.405Z,52.45
2023-03-17T09:50:57.481Z,52.05
2023-03-17T09:55:03.239Z,51.37
2023-03-17T09:59:21.507Z,51.31
2023-03-17T10:03:27.287Z,50.42
2023-03-17T10:07:42.987Z,51.15
2023-03-17T10:11:48.803Z,50.86
2023-03-17T10:15:58.297Z,51.68
2023-03-17T10:20:06.963Z,51.36
2023-03-17T10:24:12.223Z,51.26
2023-03-17T10:28:27.121Z,50.94
2023-03-17T10:32:32.964Z,51.67
2023-03-17T10:36:38.817Z,51.13
2023-03-17T10:40:42.682Z,50.36
2023-03-17T10:44:51.155Z,48.53
2023-03-17T10:48:58.337Z,48.76
2023-03-17T10:53:07.886Z,48.28
2023-03-17T10:57:14.303Z,48.20
2023-03-17T11:01:23.744Z,47.86
2023-03-17T11:05:29.917Z,48.70
2023-03-17T11:09:36.895Z,48.35
2023-03-17T11:13:40.889Z,48.73
2023-03-17T11:17:52.470Z,48.54
2023-03-17T11:22:06.646Z,49.01
2023-03-17T11:26:24.248Z,49.35
2023-03-17T11:30:32.791Z,49.20
2023-03-17T11:34:57.388Z,48.34
2023-03-17T11:39:11.606Z,48.29
2023-03-17T11:43:29.114Z,48.28
2023-03-17T11:47:58.260Z,48.20
2023-03-17T11:52:06.475Z,47.81
2023-03-17T11:56:18.995Z,47.57
2023-03-17T12:00:28.943Z,46.65
2023-03-17T12:04:37.847Z,46.31
2023-03-17T12:08:46.452Z,46.61
2023-03-17T12:12:54.360Z,46.59
2023-03-17T12:17:04.902Z,46.46
2023-03-17T12:21:16.108Z,46.75
2023-03-17T12:25:25.621Z,46.16
2023-03-17T12:29:43.525Z,46.57
2023-03-17T12:33:53.417Z,46.50
2023-03-17T12:38:00.440Z,45.79
2023-03-17T12:42:27.308Z,45.78
2023-03-17T12:47:15.755Z,45.22
2023-03-17T12:51:44.829Z,45.87
2023-03-17T12:55:51.997Z,45.66
2023-03-17T13:00:01.743Z,44.91
2023-03-17T13:04:26.465Z,44.98
2023-03-17T13:08:32.258Z,44.55
2023-03-17T13:13:05.673Z,44.30
2023-03-17T13:17:34.138Z,44.81
2023-03-17T13:21:38.936Z,44.97
2023-03-17T13:25:53.376Z,45.13
2023-03-17T13:29:56.535Z,45.47
2023-03-17T13:34:07.922Z,45.94
2023-03-17T13:38:32.139Z,45.66
2023-03-17T13:42:54.334Z,45.60
2023-03-17T13:47:15.869Z,46.08
2023-03-17T13:51:22.434Z,45.63
2023-03-17T13:55:41.115Z,45.74
2023-03-17T13:59:57.178Z,46.62
2023-03-17T14:04:04.108Z,46.35
2023-03-17T14:08:16.774Z,45.94
2023-03-17T14:12:27.661Z,46.55
2023-03-17T14:16:35.487Z,46.21
2023-03-17T14:20:38.403Z,46.51
2023-03-17T14:24:41.581Z,46.61
2023-03-17T14:28:45.944Z,46.80
2023-03-17T14:32:51.609Z,47.00
2023-03-17T14:36:55.307Z,46.94
2023-03-17T14:41:02.922Z,46.56
2023-03-17T14:45:09.540Z,46.49
2023-03-17T14:49:17.612Z,47.00
2023-03-17T14:53:23.939Z,47.44
2023-03-17T14:57:29.593Z,47.28
2023-03-17T15:01:37.644Z,47.47
2023-03-17T15:05:43.006Z,47.31
2023-03-17T15:09:45.895Z,47.23
2023-03-17T15:13:51.002Z,47.24
2023-03-17T15:17:57.981Z,46.98
2023-03-17T15:22:06.203Z,47.51
2023-03-17T15:26:23.464Z,47.55
2023-03-17T15:30:37.350Z,47.83
2023-03-17T15:34:51.318Z,47.89
2023-03-17T15:38:55.259Z,47.93
2023-03-17T15:42:58.943Z,48.05
2023-03-17T15:47:01.774Z,48.53
2023-03-17T15:51:07.456Z,48.71
2023-03-17T15:55:20.908Z,49.12
2023-03-17T15:59:24.521Z,49.01
2023-03-17T16:03:31.158Z,49.38
2023-03-17T16:07:35.280Z,49.52
2023-03-17T16:11:40.343Z,49.95
2023-03-17T16:15:53.933Z,50.04
2023-03-17T16:19:57.350Z,50.31
2023-03-17T16:24:01.467Z,50.91
2023-03-17T16:28:16.438Z,51.58
2023-03-17T16:32:19.300Z,52.16
2023-03-17T16:36:24.047Z,52.20
2023-03-17T16:40:34.195Z,52.34
2023-03-17T16:44:37.272Z,52.30
2023-03-17T16:48:52.278Z,52.50
2023-03-17T16:53:01.133Z,52.47
2023-03-17T16:57:10.585Z,52.43
2023-03-17T17:01:17.877Z,52.42
2023-03-17T17:05:22.997Z,52.88
2023-03-17T17:09:26.237Z,53.02
2023-03-17T17:13:31.518Z,53.43
2023-03-17T17:17:35.743Z,53.80
2023-03-17T17:21:38.458Z,54.26
2023-03-17T17:25:41.455Z,55.11
2023-03-17T17:29:45.627Z,56.11
2023-03-17T17:33:48.472Z,56.83
2023-03-17T17:37:51.435Z,57.76
2023-03-17T17:41:56.393Z,58.66
2023-03-17T17:46:01.762Z,59.53
2023-03-17T17:50:05.815Z,60.28
2023-03-17T17:54:10.203Z,60.78
2023-03-17T17:58:14.313Z,61.61
2023-03-17T18:02:18.493Z,62.88
2023-03-17T18:06:22.203Z,64.16
2023-03-17T18:10:26.755Z,65.46
2023-03-17T18:14:30.014Z,65.82
2023-03-17T18:18:42.325Z,66.68
2023-03-17T18:22:45.886Z,68.26
2023-03-17T18:26:49.540Z,69.29
2023-03-17T18:30:52.717Z,70.67
2023-03-17T18:35:00.584Z,73.05
2023-03-17T18:39:04.081Z,74.30
2023-03-17T18:43:07.050Z,73.88
2023-03-17T18:47:10.512Z,74.24
2023-03-17T18:51:16.215Z,74.73
2023-03-17T18:55:31.426Z,74.12
2023-03-17T18:59:34.350Z,72.36
2023-03-17T19:03:37.733Z,70.84
2023-03-17T19:07:42.061Z,69.77
2023-03-17T19:11:56.221Z,68.56
2023-03-17T19:15:59.284Z,67.35
2023-03-17T19:20:03.618Z,66.65
2023-03-17T19:24:10.148Z,66.25
2023-03-17T19:28:15.596Z,65.84
2023-03-17T19:32:21.968Z,65.56
2023-03-17T19:36:25.879Z,64.95
2023-03-17T19:40:30.808Z,64.47
2023-03-17T19:44:33.736Z,64.28
2023-03-17T19:48:37.406Z,64.17
2023-03-17T19:52:40.405Z,64.22
2023-03-17T19:56:44.657Z,64.45
2023-03-17T20:00:47.839Z,64.83
2023-03-17T20:04:51.088Z,64.93
2023-03-17T20:08:54.130Z,65.25
2023-03-17T20:12:58.667Z,64.98
2023-03-17T20:17:01.429Z,65.07
2023-03-17T20:21:07.714Z,65.25
2023-03-17T20:25:12.349Z,65.42
2023-03-17T20:29:17.544Z,65.69
2023-03-17T20:33:20.448Z,65.68
2023-03-17T20:37:24.753Z,66.00
2023-03-17T20:41:28.067Z,66.43
2023-03-17T20:45:32.396Z,66.60
2023-03-17T20:49:35.976Z,67.22
2023-03-17T20:53:39.067Z,67.33
2023-03-17T20:57:45.248Z,67.89
2023-03-17T21:01:49.970Z,68.28
2023-03-17T21:05:53.466Z,68.62
2023-03-17T21:09:56.749Z,69.31
2023-03-17T21:14:03.314Z,69.78
2023-03-17T21:18:08.291Z,70.48
2023-03-17T21:22:12.376Z,70.46
2023-03-17T21:26:15.986Z,71.07
2023-03-17T21:30:19.111Z,71.29
2023-03-17T21:34:24.298Z,72.06
2023-03-17T21:38:29.592Z,71.88
2023-03-17T21:42:33.340Z,72.04
2023-03-17T21:46:36.352Z,72.31
2023-03-17T21:50:40.504Z,72.20
2023-03-17T21:54:51.674Z,72.18
2023-03-17T21:58:54.672Z,72.31
2023-03-17T22:03:01.318Z,72.19
2023-03-17T22:07:06.011Z,72.81
2023-03-17T22:11:11.177Z,72.40
2023-03-17T22:15:14.371Z,72.86
2023-03-17T22:19:20.595Z,72.92
2023-03-17T22:23:26.007Z,73.28
2023-03-17T22:27:29.247Z,73.45
2023-03-17T22:31:32.540Z,73.23
2023-03-17T22:35:36.342Z,73.57
2023-03-17T22:39:41.646Z,73.62
2023-03-17T22:43:44.830Z,74.01
2023-03-17T22:47:47.542Z,74.32
2023-03-17T22:51:51.183Z,74.14
2023-03-17T22:56:04.995Z,74.36
2023-03-17T23:00:13.908Z,74.54
2023-03-17T23:04:18.386Z,75.08
2023-03-17T23:08:22.090Z,75.12
2023-03-17T23:12:28.246Z,75.24
2023-03-17T23:16:32.069Z,75.51
2023-03-17T23:20:34.878Z,75.46
2023-03-17T23:24:37.832Z,75.71
2023-03-17T23:28:44.273Z,76.10
2023-03-17T23:32:49.099Z,76.36
2023-03-17T23:36:52.368Z,76.51
2023-03-17T23:40:57.492Z,77.04
2023-03-17T23:45:02.032Z,77.63
2023-03-17T23:49:07.144Z,77.91
2023-03-17T23:53:11.511Z,78.68
2023-03-17T23:57:16.285Z,78.99
